Time;durP1;ratioP1;P1;durP2;ratioP2;P2;SDS_P1;SDS_P2;PMS_P1;PMS_P2;Temp;Humidity;BMP_temperature;BMP_pressure;BME280_temperature;BME280_humidity;BME280_pressure;Samples;Min_cycle;Max_cycle;Signal;HPM_P1;HPM_P2
2023/09/08 00:01:43;;;;;;;;;;;23.50;99.90;;;;;;5078924;28;19977;-70
2023/09/08 00:04:09;;;;;;;;;;;23.50;99.90;;;;;;5097566;28;20030;-70
2023/09/08 00:06:34;;;;;;;;;;;23.50;99.90;;;;;;5078910;28;19915;-70
2023/09/08 00:09:02;;;;;;;;;;;23.50;99.90;;;;;;5078807;28;20379;-70
2023/09/08 00:11:28;;;;;;;;;;;23.40;99.90;;;;;;5096819;28;19909;-71
2023/09/08 00:13:54;;;;;;;;;;;23.40;99.90;;;;;;5096838;28;20007;-71
2023/09/08 00:16:20;;;;;;;;;;;23.40;99.90;;;;;;5096784;28;19913;-70
2023/09/08 00:18:45;;;;;;;;;;;23.40;99.90;;;;;;5096859;28;19908;-70
2023/09/08 00:21:11;;;;;;;;;;;23.40;99.90;;;;;;5078592;28;20402;-70
2023/09/08 00:23:37;;;;;;;;;;;23.40;99.90;;;;;;5097260;28;20375;-70
2023/09/08 00:26:03;;;;;;;;;;;23.40;99.90;;;;;;5096484;28;19915;-70
2023/09/08 00:28:29;;;;;;;;;;;23.40;99.90;;;;;;5097204;28;19908;-70
2023/09/08 00:30:55;;;;;;;;;;;23.40;99.90;;;;;;5078325;28;20368;-70
2023/09/08 00:33:22;;;;;;;;;;;23.40;99.90;;;;;;5096509;28;19920;-69
2023/09/08 00:35:51;;;;;;;;;;;23.40;99.90;;;;;;5096494;28;19955;-70
2023/09/08 00:38:17;;;;;;;;;;;23.30;99.90;;;;;;5096245;28;19920;-70
2023/09/08 00:40:43;;;;;;;;;;;23.20;99.90;;;;;;5096334;28;20026;-70
2023/09/08 00:43:09;;;;;;;;;;;23.20;99.90;;;;;;5096400;28;19908;-69
2023/09/08 00:45:38;;;;;;;;;;;23.20;99.90;;;;;;5096194;28;19908;-70
2023/09/08 00:48:04;;;;;;;;;;;23.20;99.90;;;;;;5096767;28;20261;-70
2023/09/08 00:50:30;;;;;;;;;;;23.20;99.90;;;;;;5096571;28;20372;-71
2023/09/08 00:52:56;;;;;;;;;;;23.20;99.90;;;;;;5096691;28;19957;-70
2023/09/08 00:55:22;;;;;;;;;;;23.20;99.90;;;;;;5095912;28;19916;-70
2023/09/08 00:57:47;;;;;;;;;;;23.20;99.90;;;;;;5096138;28;19908;-70
2023/09/08 01:00:14;;;;;;;;;;;23.30;99.90;;;;;;5096046;28;19908;-70
2023/09/08 01:02:40;;;;;;;;;;;23.30;99.90;;;;;;5078082;28;20309;-70
2023/09/08 01:05:06;;;;;;;;;;;23.40;99.90;;;;;;5095077;28;20352;-70
2023/09/08 01:07:32;;;;;;;;;;;23.40;99.90;;;;;;5096203;28;20268;-70
2023/09/08 01:10:03;;;;;;;;;;;23.40;99.90;;;;;;5096020;28;19995;-70
2023/09/08 01:12:29;;;;;;;;;;;23.40;99.90;;;;;;5096396;28;20344;-72
2023/09/08 01:14:55;;;;;;;;;;;23.40;99.90;;;;;;5095751;28;20020;-69
2023/09/08 01:17:21;;;;;;;;;;;23.40;99.90;;;;;;5095685;28;19908;-70
2023/09/08 01:19:47;;;;;;;;;;;23.40;99.90;;;;;;5077497;28;20356;-71
2023/09/08 01:22:19;;;;;;;;;;;23.40;99.90;;;;;;5095598;28;20379;-70
2023/09/08 01:24:45;;;;;;;;;;;23.40;99.90;;;;;;5095758;28;19916;-70
2023/09/08 01:27:12;;;;;;;;;;;23.40;99.90;;;;;;5095564;28;19908;-70
2023/09/08 01:29:38;;;;;;;;;;;23.40;99.90;;;;;;5095978;28;19912;-70
2023/09/08 01:32:04;;;;;;;;;;;23.50;99.90;;;;;;5095423;28;19908;-70
2023/09/08 01:34:30;;;;;;;;;;;23.40;99.90;;;;;;5077142;28;20303;-70
2023/09/08 01:36:56;;;;;;;;;;;23.50;99.90;;;;;;5095308;28;19926;-69
2023/09/08 01:39:22;;;;;;;;;;;23.50;99.90;;;;;;5095700;28;19919;-70
2023/09/08 01:41:48;;;;;;;;;;;23.40;99.90;;;;;;5095522;28;19908;-70
2023/09/08 01:44:14;;;;;;;;;;;23.40;99.90;;;;;;5095532;28;19908;-69
2023/09/08 01:46:40;;;;;;;;;;;23.40;99.90;;;;;;5076930;28;20322;-71
2023/09/08 01:49:06;;;;;;;;;;;23.30;99.90;;;;;;5076882;28;19959;-70
2023/09/08 01:51:32;;;;;;;;;;;23.20;99.90;;;;;;5095534;28;19947;-71
2023/09/08 01:53:58;;;;;;;;;;;23.20;99.90;;;;;;5095155;28;19916;-69
2023/09/08 01:56:24;;;;;;;;;;;23.20;99.90;;;;;;5094827;28;19924;-70
2023/09/08 01:58:49;;;;;;;;;;;23.30;99.90;;;;;;5095700;28;19909;-70
2023/09/08 02:01:15;;;;;;;;;;;23.30;99.90;;;;;;5095105;28;19951;-70
2023/09/08 02:03:41;;;;;;;;;;;23.20;99.90;;;;;;5095620;28;19908;-70
2023/09/08 02:06:07;;;;;;;;;;;23.20;99.90;;;;;;5095025;28;19908;-69
2023/09/08 02:08:32;;;;;;;;;;;23.30;99.90;;;;;;5094769;28;19915;-70
2023/09/08 02:10:58;;;;;;;;;;;23.30;99.90;;;;;;5094713;28;19960;-70
2023/09/08 02:13:24;;;;;;;;;;;23.30;99.90;;;;;;5076398;28;20379;-70
2023/09/08 02:15:50;;;;;;;;;;;23.30;99.90;;;;;;5094108;28;20045;-70
2023/09/08 02:18:16;;;;;;;;;;;23.30;99.90;;;;;;5076355;28;19915;-70
2023/09/08 02:20:42;;;;;;;;;;;23.30;99.90;;;;;;5076336;28;19908;-70
2023/09/08 02:23:08;;;;;;;;;;;23.30;99.90;;;;;;5094972;28;19915;-71
2023/09/08 02:25:34;;;;;;;;;;;23.30;99.90;;;;;;5094234;28;19915;-70
2023/09/08 02:27:59;;;;;;;;;;;23.30;99.90;;;;;;5094858;28;20352;-70
2023/09/08 02:30:25;;;;;;;;;;;23.40;99.90;;;;;;5094362;28;19908;-70
2023/09/08 02:32:51;;;;;;;;;;;23.40;99.90;;;;;;5094803;28;20427;-71
2023/09/08 02:35:17;;;;;;;;;;;23.40;99.90;;;;;;5094589;28;19951;-70
2023/09/08 02:37:43;;;;;;;;;;;23.40;99.90;;;;;;5094194;28;19920;-70
2023/09/08 02:40:09;;;;;;;;;;;23.40;99.90;;;;;;5094048;28;19995;-70
2023/09/08 02:42:35;;;;;;;;;;;23.40;99.90;;;;;;5094130;28;19961;-70
2023/09/08 02:45:01;;;;;;;;;;;23.40;99.90;;;;;;5094137;28;19916;-70
2023/09/08 02:47:27;;;;;;;;;;;23.40;99.90;;;;;;5075860;28;20355;-70
2023/09/08 02:49:52;;;;;;;;;;;23.30;99.90;;;;;;5093989;28;19915;-71
2023/09/08 02:52:19;;;;;;;;;;;23.20;99.90;;;;;;5094484;28;19908;-71
2023/09/08 02:54:45;;;;;;;;;;;23.20;99.90;;;;;;5093914;28;19923;-70
2023/09/08 02:57:11;;;;;;;;;;;23.20;99.90;;;;;;5093873;28;19912;-70
2023/09/08 02:59:37;;;;;;;;;;;23.20;99.90;;;;;;5093873;28;19912;-70
2023/09/08 03:02:03;;;;;;;;;;;23.20;99.90;;;;;;5093878;28;20360;-70
2023/09/08 03:04:28;;;;;;;;;;;23.20;99.90;;;;;;5093774;28;19915;-71
2023/09/08 03:06:54;;;;;;;;;;;23.20;99.90;;;;;;5093802;28;19915;-71
2023/09/08 03:09:20;;;;;;;;;;;23.20;99.90;;;;;;5075585;28;19918;-70
2023/09/08 03:11:46;;;;;;;;;;;23.20;99.90;;;;;;5075499;28;19915;-70
2023/09/08 03:14:12;;;;;;;;;;;23.10;99.90;;;;;;5093849;28;19916;-70
2023/09/08 03:16:37;;;;;;;;;;;23.10;99.90;;;;;;5075493;28;19909;-70
2023/09/08 03:19:03;;;;;;;;;;;23.10;99.90;;;;;;5093650;28;20410;-70
2023/09/08 03:21:29;;;;;;;;;;;23.10;99.90;;;;;;5094105;28;19908;-70
2023/09/08 03:23:55;;;;;;;;;;;23.10;99.90;;;;;;5075431;28;19915;-70
2023/09/08 03:26:21;;;;;;;;;;;23.10;99.90;;;;;;5093399;28;19912;-70
2023/09/08 03:28:46;;;;;;;;;;;23.10;99.90;;;;;;5096114;28;19969;-70
2023/09/08 03:31:12;;;;;;;;;;;23.10;99.90;;;;;;5097686;28;19908;-70
2023/09/08 03:33:38;;;;;;;;;;;23.00;99.90;;;;;;5097565;28;19972;-70
2023/09/08 03:36:04;;;;;;;;;;;23.00;99.90;;;;;;5097633;28;19915;-70
2023/09/08 03:38:30;;;;;;;;;;;23.00;99.90;;;;;;5097468;28;19920;-70
2023/09/08 03:40:56;;;;;;;;;;;23.00;99.90;;;;;;5097310;28;19920;-69
2023/09/08 03:43:22;;;;;;;;;;;22.90;99.90;;;;;;5098080;28;20285;-71
2023/09/08 03:45:47;;;;;;;;;;;22.90;99.90;;;;;;5097270;28;19908;-70
2023/09/08 03:48:13;;;;;;;;;;;22.90;99.90;;;;;;5097398;28;20002;-70
2023/09/08 03:50:39;;;;;;;;;;;22.80;99.90;;;;;;5097332;28;19908;-71
2023/09/08 03:53:05;;;;;;;;;;;22.80;99.90;;;;;;5097201;28;20057;-69
2023/09/08 03:55:31;;;;;;;;;;;22.70;99.90;;;;;;5097345;28;19931;-70
2023/09/08 03:57:57;;;;;;;;;;;22.80;99.90;;;;;;5097797;28;19997;-69
2023/09/08 04:00:22;;;;;;;;;;;22.80;99.90;;;;;;5097475;28;19908;-70
2023/09/08 04:02:49;;;;;;;;;;;22.70;99.90;;;;;;5097221;28;20295;-70
2023/09/08 04:05:16;;;;;;;;;;;22.80;99.90;;;;;;5097124;28;19934;-70
2023/09/08 04:07:41;;;;;;;;;;;22.70;99.90;;;;;;5097044;28;20276;-70
2023/09/08 04:10:08;;;;;;;;;;;22.70;99.90;;;;;;5096821;28;19908;-70
2023/09/08 04:12:33;;;;;;;;;;;22.80;99.90;;;;;;5097536;28;20348;-70
2023/09/08 04:14:59;;;;;;;;;;;22.80;99.90;;;;;;5097093;28;19916;-70
2023/09/08 04:17:25;;;;;;;;;;;22.80;99.90;;;;;;5096887;28;19908;-70
2023/09/08 04:19:51;;;;;;;;;;;22.80;99.90;;;;;;5078635;28;20018;-70
2023/09/08 04:22:16;;;;;;;;;;;22.80;99.90;;;;;;5097038;28;19908;-70
2023/09/08 04:24:42;;;;;;;;;;;22.80;99.90;;;;;;5097072;28;19912;-70
2023/09/08 04:27:10;;;;;;;;;;;22.70;99.90;;;;;;5096620;28;19908;-71
2023/09/08 04:29:36;;;;;;;;;;;22.80;99.90;;;;;;5096598;28;19908;-69
2023/09/08 04:32:08;;;;;;;;;;;22.80;99.90;;;;;;5096586;28;20035;-72
2023/09/08 04:34:36;;;;;;;;;;;22.80;99.90;;;;;;5096656;28;19960;-70
2023/09/08 04:37:02;;;;;;;;;;;22.80;99.90;;;;;;5096249;28;19920;-70
2023/09/08 04:39:27;;;;;;;;;;;22.80;99.90;;;;;;5096665;28;19914;-70
2023/09/08 04:41:53;;;;;;;;;;;22.70;99.90;;;;;;5096217;28;19995;-70
2023/09/08 04:44:20;;;;;;;;;;;22.70;99.90;;;;;;5096216;28;19930;-70
2023/09/08 04:46:46;;;;;;;;;;;22.70;99.90;;;;;;5096749;28;20419;-70
2023/09/08 04:49:11;;;;;;;;;;;22.50;99.90;;;;;;5096231;28;19908;-70
2023/09/08 04:51:37;;;;;;;;;;;22.30;99.90;;;;;;5096372;28;19908;-69
2023/09/08 04:54:03;;;;;;;;;;;22.20;99.90;;;;;;5095945;28;20405;-70
2023/09/08 04:56:29;;;;;;;;;;;22.30;99.90;;;;;;5095729;28;19944;-70
2023/09/08 04:58:55;;;;;;;;;;;22.30;99.90;;;;;;5077758;28;19908;-70
2023/09/08 05:01:21;;;;;;;;;;;22.20;99.90;;;;;;5095909;28;20261;-69
2023/09/08 05:03:47;;;;;;;;;;;22.20;99.90;;;;;;5095951;28;19916;-69
2023/09/08 05:06:13;;;;;;;;;;;22.20;99.90;;;;;;5096364;28;19915;-71
2023/09/08 05:08:39;;;;;;;;;;;22.30;99.90;;;;;;5095834;28;20271;-71
2023/09/08 05:11:05;;;;;;;;;;;22.30;99.90;;;;;;5095816;28;20003;-70
2023/09/08 05:13:31;;;;;;;;;;;22.40;99.90;;;;;;5095632;28;19912;-70
2023/09/08 05:16:00;;;;;;;;;;;22.50;99.90;;;;;;5095468;28;20006;-71
2023/09/08 05:18:26;;;;;;;;;;;22.60;99.90;;;;;;5095123;28;19912;-70
2023/09/08 05:20:53;;;;;;;;;;;22.70;99.90;;;;;;5095449;28;20394;-72
2023/09/08 05:23:18;;;;;;;;;;;22.90;99.90;;;;;;5095366;28;19908;-70
2023/09/08 05:25:44;;;;;;;;;;;23.20;99.90;;;;;;5095383;28;19988;-70
2023/09/08 05:28:10;;;;;;;;;;;24.20;99.90;;;;;;5094991;28;19995;-71
2023/09/08 05:30:36;;;;;;;;;;;25.50;99.90;;;;;;5076687;28;19952;-70
2023/09/08 05:33:02;;;;;;;;;;;26.70;99.90;;;;;;5094894;28;19918;-70
2023/09/08 05:35:28;;;;;;;;;;;27.60;99.90;;;;;;5094896;28;19916;-71
2023/09/08 05:37:53;;;;;;;;;;;28.60;99.90;;;;;;5094659;28;19999;-71
2023/09/08 05:40:23;;;;;;;;;;;29.60;99.90;;;;;;5094860;28;20303;-71
2023/09/08 05:42:49;;;;;;;;;;;30.40;99.90;;;;;;5095482;28;20008;-71
2023/09/08 05:45:15;;;;;;;;;;;30.30;99.90;;;;;;5094866;28;19916;-71
2023/09/08 05:47:41;;;;;;;;;;;31.00;99.90;;;;;;5094917;28;20371;-70
2023/09/08 05:50:07;;;;;;;;;;;31.40;99.90;;;;;;5095234;28;20010;-70
2023/09/08 05:52:33;;;;;;;;;;;32.20;99.90;;;;;;5094586;28;19995;-70
2023/09/08 05:54:59;;;;;;;;;;;32.40;99.90;;;;;;5094506;28;19920;-71
2023/09/08 05:57:24;;;;;;;;;;;32.90;99.90;;;;;;5094897;28;20412;-71
2023/09/08 05:59:50;;;;;;;;;;;33.00;99.90;;;;;;5094621;28;19909;-72
2023/09/08 06:02:16;;;;;;;;;;;33.20;99.90;;;;;;5094605;28;19996;-71
2023/09/08 06:04:42;;;;;;;;;;;34.20;99.90;;;;;;5094378;28;19908;-71
2023/09/08 06:07:07;;;;;;;;;;;34.50;99.90;;;;;;5094327;28;19908;-71
2023/09/08 06:09:33;;;;;;;;;;;34.10;99.90;;;;;;5094860;28;19908;-70
2023/09/08 06:11:59;;;;;;;;;;;34.30;99.90;;;;;;5094085;28;19915;-70
2023/09/08 06:14:25;;;;;;;;;;;33.30;99.90;;;;;;5094113;28;19912;-71
2023/09/08 06:16:51;;;;;;;;;;;31.90;99.90;;;;;;5093986;28;19908;-71
2023/09/08 06:19:16;;;;;;;;;;;30.20;99.90;;;;;;5094161;28;19909;-71
2023/09/08 06:21:43;;;;;;;;;;;30.10;99.90;;;;;;5094214;28;19908;-71
2023/09/08 06:24:08;;;;;;;;;;;31.00;99.90;;;;;;5094075;28;19915;-72
2023/09/08 06:26:34;;;;;;;;;;;32.10;99.90;;;;;;5093967;28;19908;-71
2023/09/08 06:29:00;;;;;;;;;;;32.20;99.90;;;;;;5094176;28;20310;-71
2023/09/08 06:31:27;;;;;;;;;;;32.10;99.90;;;;;;5094068;28;19909;-71
2023/09/08 06:33:52;;;;;;;;;;;31.00;99.90;;;;;;5093762;28;19916;-71
2023/09/08 06:36:19;;;;;;;;;;;30.00;99.90;;;;;;5094466;28;19994;-71
2023/09/08 06:38:44;;;;;;;;;;;29.30;99.90;;;;;;5093587;28;19920;-70
2023/09/08 06:41:11;;;;;;;;;;;29.00;99.90;;;;;;5093760;28;19935;-71
2023/09/08 06:43:37;;;;;;;;;;;28.60;99.90;;;;;;5093752;28;20348;-70
2023/09/08 06:46:03;;;;;;;;;;;28.20;99.90;;;;;;5094223;28;19997;-70
2023/09/08 06:48:29;;;;;;;;;;;28.00;99.90;;;;;;5093586;28;19908;-71
2023/09/08 06:50:56;;;;;;;;;;;28.30;99.90;;;;;;5093552;28;19939;-71
2023/09/08 06:53:25;;;;;;;;;;;28.20;99.90;;;;;;5093168;28;20002;-71
2023/09/08 06:55:51;;;;;;;;;;;27.90;99.90;;;;;;5093228;28;19916;-70
2023/09/08 06:58:17;;;;;;;;;;;28.80;99.90;;;;;;5093481;28;20061;-70
2023/09/08 07:00:42;;;;;;;;;;;30.30;99.90;;;;;;5093693;28;19908;-70
2023/09/08 07:03:08;;;;;;;;;;;30.50;99.90;;;;;;5075120;28;20279;-71
2023/09/08 07:05:34;;;;;;;;;;;31.60;99.90;;;;;;5093835;28;19908;-71
2023/09/08 07:08:00;;;;;;;;;;;32.90;99.90;;;;;;5093681;28;19914;-71
2023/09/08 07:10:26;;;;;;;;;;;33.80;99.90;;;;;;5093135;28;19947;-71
2023/09/08 07:12:52;;;;;;;;;;;32.40;99.90;;;;;;5093630;28;19933;-71
2023/09/08 07:15:18;;;;;;;;;;;31.30;99.90;;;;;;5093373;28;19973;-71
2023/09/08 07:17:43;;;;;;;;;;;32.20;99.90;;;;;;5093129;28;19914;-71
2023/09/08 07:20:09;;;;;;;;;;;32.90;99.90;;;;;;5093774;28;19964;-71
2023/09/08 07:22:35;;;;;;;;;;;34.80;99.90;;;;;;5093388;28;19914;-71
2023/09/08 07:25:01;;;;;;;;;;;35.60;99.90;;;;;;5093304;28;20007;-71
2023/09/08 07:27:27;;;;;;;;;;;35.30;99.90;;;;;;5093741;28;20372;-72
2023/09/08 07:29:53;;;;;;;;;;;33.20;99.90;;;;;;5093621;28;19908;-72
2023/09/08 07:32:18;;;;;;;;;;;32.00;99.90;;;;;;5093611;28;20344;-72
2023/09/08 07:34:44;;;;;;;;;;;31.00;99.90;;;;;;5093637;28;19920;-71
2023/09/08 07:37:10;;;;;;;;;;;30.70;99.90;;;;;;5093041;28;19916;-73
2023/09/08 07:39:36;;;;;;;;;;;31.00;99.90;;;;;;5093427;28;19935;-71
2023/09/08 07:42:02;;;;;;;;;;;31.40;99.90;;;;;;5093277;28;20010;-71
2023/09/08 07:44:28;;;;;;;;;;;30.80;99.90;;;;;;5093259;28;19998;-72
2023/09/08 07:46:56;;;;;;;;;;;31.20;99.90;;;;;;5092951;28;19908;-71
2023/09/08 07:49:23;;;;;;;;;;;31.10;99.90;;;;;;5093001;28;19919;-71
2023/09/08 07:51:48;;;;;;;;;;;31.10;99.90;;;;;;5092852;28;19943;-72
2023/09/08 07:54:14;;;;;;;;;;;30.80;99.90;;;;;;5092877;28;19966;-71
2023/09/08 07:56:42;;;;;;;;;;;30.50;99.90;;;;;;5092894;28;19916;-71
2023/09/08 07:59:08;;;;;;;;;;;29.90;99.90;;;;;;5074685;28;20329;-71
2023/09/08 08:01:34;;;;;;;;;;;30.00;99.90;;;;;;5092824;28;19908;-71
2023/09/08 08:04:03;;;;;;;;;;;29.50;99.90;;;;;;5093174;28;20281;-70
2023/09/08 08:06:28;;;;;;;;;;;29.10;99.90;;;;;;5092949;28;19908;-71
2023/09/08 08:08:54;;;;;;;;;;;29.10;99.90;;;;;;5092698;28;20413;-70
2023/09/08 08:11:20;;;;;;;;;;;29.10;99.90;;;;;;5092560;28;19914;-71
2023/09/08 08:13:46;;;;;;;;;;;28.70;99.90;;;;;;5093034;28;19920;-71
2023/09/08 08:16:12;;;;;;;;;;;28.90;99.90;;;;;;5096442;28;20022;-70
2023/09/08 08:18:38;;;;;;;;;;;29.30;99.90;;;;;;5096821;28;19909;-71
2023/09/08 08:21:03;;;;;;;;;;;29.10;99.90;;;;;;5097291;28;19908;-70
2023/09/08 08:23:30;;;;;;;;;;;29.10;99.90;;;;;;5096826;28;19908;-71
2023/09/08 08:25:56;;;;;;;;;;;29.00;99.90;;;;;;5096730;28;19908;-70
2023/09/08 08:28:22;;;;;;;;;;;28.50;99.90;;;;;;5096693;28;19965;-70
2023/09/08 08:30:48;;;;;;;;;;;28.40;99.90;;;;;;5096304;28;19912;-70
2023/09/08 08:33:14;;;;;;;;;;;28.80;99.90;;;;;;5095862;28;19908;-70
2023/09/08 08:35:40;;;;;;;;;;;29.10;99.90;;;;;;5096135;28;19982;-70
2023/09/08 08:38:05;;;;;;;;;;;29.40;99.90;;;;;;5095851;28;20011;-70
2023/09/08 08:40:33;;;;;;;;;;;29.90;99.90;;;;;;5095888;28;19912;-70
2023/09/08 08:43:00;;;;;;;;;;;30.00;99.90;;;;;;5095852;28;19970;-70
2023/09/08 08:45:26;;;;;;;;;;;29.90;99.90;;;;;;5096459;28;19915;-71
2023/09/08 08:47:52;;;;;;;;;;;29.80;99.90;;;;;;5095704;28;20288;-71
2023/09/08 08:50:19;;;;;;;;;;;29.70;99.90;;;;;;5077429;28;20377;-71
2023/09/08 08:52:45;;;;;;;;;;;29.00;99.90;;;;;;5077450;28;19909;-71
2023/09/08 08:55:11;;;;;;;;;;;29.10;99.90;;;;;;5095621;28;19938;-70
2023/09/08 08:57:38;;;;;;;;;;;29.00;99.90;;;;;;5077825;28;20234;-71
2023/09/08 09:00:09;;;;;;;;;;;29.40;99.90;;;;;;5095950;28;19915;-71
2023/09/08 09:02:36;;;;;;;;;;;29.70;99.90;;;;;;5077790;28;19908;-71
2023/09/08 09:05:03;;;;;;;;;;;29.70;99.90;;;;;;5095540;28;19985;-70
2023/09/08 09:07:28;;;;;;;;;;;29.90;99.90;;;;;;5096028;28;19952;-71
2023/09/08 09:09:54;;;;;;;;;;;30.00;99.90;;;;;;5095397;28;19959;-71
2023/09/08 09:12:21;;;;;;;;;;;30.10;99.90;;;;;;5095270;28;19975;-71
2023/09/08 09:14:47;;;;;;;;;;;29.80;99.90;;;;;;5095248;28;19916;-72
2023/09/08 09:17:16;;;;;;;;;;;29.70;99.90;;;;;;5095475;28;19995;-71
2023/09/08 09:19:42;;;;;;;;;;;29.90;99.90;;;;;;5095181;28;19965;-70
2023/09/08 09:22:08;;;;;;;;;;;29.80;99.90;;;;;;5095726;28;19912;-70
2023/09/08 09:24:40;;;;;;;;;;;29.50;99.90;;;;;;5095155;28;19999;-71
2023/09/08 09:27:07;;;;;;;;;;;29.70;99.90;;;;;;5093910;28;20011;-72
2023/09/08 09:29:33;;;;;;;;;;;30.30;99.90;;;;;;5076967;28;19912;-71
2023/09/08 09:32:05;;;;;;;;;;;30.50;99.90;;;;;;5095529;28;19969;-71
2023/09/08 09:34:32;;;;;;;;;;;30.20;99.90;;;;;;5076745;28;19927;-72
2023/09/08 09:36:57;;;;;;;;;;;30.50;99.90;;;;;;5076677;28;19916;-70
2023/09/08 09:39:24;;;;;;;;;;;30.50;99.90;;;;;;5095491;28;19920;-70
2023/09/08 09:41:54;;;;;;;;;;;30.40;99.90;;;;;;5094750;28;19921;-71
2023/09/08 09:44:21;;;;;;;;;;;30.30;99.90;;;;;;5094861;28;19908;-71
2023/09/08 09:46:47;;;;;;;;;;;30.30;99.90;;;;;;5095096;28;19922;-71
2023/09/08 09:49:13;;;;;;;;;;;30.50;99.90;;;;;;5094640;28;19908;-71
2023/09/08 09:51:42;;;;;;;;;;;31.00;99.90;;;;;;5095181;28;20003;-71
2023/09/08 09:54:08;;;;;;;;;;;31.10;99.90;;;;;;5076192;28;20003;-71
2023/09/08 09:56:37;;;;;;;;;;;31.30;99.90;;;;;;5094520;28;19947;-72
2023/09/08 09:59:03;;;;;;;;;;;31.10;99.90;;;;;;5076207;28;20252;-71
2023/09/08 10:01:30;;;;;;;;;;;30.50;99.90;;;;;;5095179;28;19908;-72
2023/09/08 10:03:57;;;;;;;;;;;30.50;99.90;;;;;;5094782;28;19970;-71
2023/09/08 10:06:23;;;;;;;;;;;30.50;99.90;;;;;;5094357;28;20382;-71
2023/09/08 10:08:51;;;;;;;;;;;30.60;99.90;;;;;;5076103;28;19908;-71
2023/09/08 10:11:19;;;;;;;;;;;30.20;99.90;;;;;;5094309;28;19985;-71
2023/09/08 10:13:47;;;;;;;;;;;29.90;99.90;;;;;;5094362;28;19916;-71
2023/09/08 10:16:15;;;;;;;;;;;30.10;99.90;;;;;;5094182;28;20048;-71
2023/09/08 10:18:44;;;;;;;;;;;30.10;99.90;;;;;;5094599;28;19915;-71
2023/09/08 10:21:10;;;;;;;;;;;30.00;99.90;;;;;;5094274;28;20261;-71
2023/09/08 10:23:40;;;;;;;;;;;30.00;99.90;;;;;;5094657;28;19908;-71
2023/09/08 10:26:11;;;;;;;;;;;29.90;99.90;;;;;;5075857;28;19914;-71
2023/09/08 10:28:37;;;;;;;;;;;29.80;99.90;;;;;;5094099;28;20015;-71
2023/09/08 10:31:04;;;;;;;;;;;29.80;99.90;;;;;;5075737;28;19968;-72
2023/09/08 10:33:34;;;;;;;;;;;30.00;99.90;;;;;;5093632;28;19920;-71
2023/09/08 10:36:02;;;;;;;;;;;30.10;99.90;;;;;;5094148;28;19961;-72
2023/09/08 10:38:31;;;;;;;;;;;30.40;99.90;;;;;;5074930;28;20376;-72
2023/09/08 10:41:15;;;;;;;;;;;30.60;99.90;;;;;;5093712;28;20340;-73
2023/09/08 10:43:54;;;;;;;;;;;30.50;99.90;;;;;;5094021;28;19954;-71
2023/09/08 10:46:24;;;;;;;;;;;30.10;99.90;;;;;;5075609;28;19909;-71
2023/09/08 10:48:49;;;;;;;;;;;30.40;99.90;;;;;;5094113;28;19916;-71
2023/09/08 10:51:17;;;;;;;;;;;30.10;99.90;;;;;;5093529;28;19914;-71
2023/09/08 10:53:46;;;;;;;;;;;30.10;99.90;;;;;;5094115;28;20003;-72
2023/09/08 10:56:12;;;;;;;;;;;30.00;99.90;;;;;;5075365;28;19916;-71
2023/09/08 10:58:42;;;;;;;;;;;30.10;99.90;;;;;;5094163;28;20332;-72
2023/09/08 11:01:19;;;;;;;;;;;30.50;99.90;;;;;;5093717;28;19908;-71
2023/09/08 11:03:49;;;;;;;;;;;30.90;99.90;;;;;;5094402;28;19912;-71
2023/09/08 11:06:17;;;;;;;;;;;31.00;99.90;;;;;;5093317;28;19962;-71
2023/09/08 11:08:44;;;;;;;;;;;31.20;99.90;;;;;;5093381;28;19915;-71
2023/09/08 11:11:13;;;;;;;;;;;31.00;99.90;;;;;;5093372;28;19978;-71
2023/09/08 11:13:45;;;;;;;;;;;31.10;99.90;;;;;;5093501;28;19908;-71
2023/09/08 11:16:11;;;;;;;;;;;31.10;99.90;;;;;;5093980;28;19962;-71
2023/09/08 11:18:37;;;;;;;;;;;30.80;99.90;;;;;;5075287;28;19954;-71
2023/09/08 11:21:07;;;;;;;;;;;30.70;99.90;;;;;;5093988;28;19939;-71
2023/09/08 11:23:33;;;;;;;;;;;30.90;99.90;;;;;;5093480;28;19912;-71
2023/09/08 11:25:59;;;;;;;;;;;31.00;99.90;;;;;;5074998;28;20267;-71
2023/09/08 11:28:26;;;;;;;;;;;30.90;99.90;;;;;;5093441;28;19935;-72
2023/09/08 11:30:53;;;;;;;;;;;30.70;99.90;;;;;;5093235;28;19912;-71
2023/09/08 11:33:26;;;;;;;;;;;30.80;99.90;;;;;;5093816;28;19999;-72
2023/09/08 11:35:54;;;;;;;;;;;31.00;99.90;;;;;;5093285;28;19916;-71
2023/09/08 11:38:30;;;;;;;;;;;30.80;99.90;;;;;;5092749;28;20385;-71
2023/09/08 11:41:00;;;;;;;;;;;30.80;99.90;;;;;;5093215;28;19950;-70
2023/09/08 11:43:27;;;;;;;;;;;30.50;99.90;;;;;;5093113;28;19914;-71
2023/09/08 11:45:53;;;;;;;;;;;30.10;99.90;;;;;;5092995;28;19912;-72
2023/09/08 11:48:19;;;;;;;;;;;30.20;99.90;;;;;;5093064;28;20363;-71
2023/09/08 11:50:45;;;;;;;;;;;30.60;99.90;;;;;;5096677;28;19988;-71
2023/09/08 11:53:10;;;;;;;;;;;31.00;99.90;;;;;;5096970;28;19961;-71
2023/09/08 11:55:36;;;;;;;;;;;31.30;99.90;;;;;;5096980;28;19916;-71
2023/09/08 11:58:02;;;;;;;;;;;31.40;99.90;;;;;;5096379;28;19958;-71
2023/09/08 12:00:29;;;;;;;;;;;31.40;99.90;;;;;;5097055;28;20043;-71
2023/09/08 12:02:55;;;;;;;;;;;31.40;99.90;;;;;;5096637;28;19944;-71
2023/09/08 12:05:25;;;;;;;;;;;31.50;99.90;;;;;;5096688;28;19930;-71
2023/09/08 12:07:52;;;;;;;;;;;31.50;99.90;;;;;;5096799;28;20002;-71
2023/09/08 12:10:18;;;;;;;;;;;31.30;99.90;;;;;;5096681;28;19908;-72
2023/09/08 12:12:45;;;;;;;;;;;31.00;99.90;;;;;;5097303;28;19915;-71
2023/09/08 12:15:11;;;;;;;;;;;31.00;99.90;;;;;;5096496;28;20011;-72
2023/09/08 12:17:47;;;;;;;;;;;30.70;99.90;;;;;;5078495;28;19961;-71
2023/09/08 12:20:14;;;;;;;;;;;30.60;99.90;;;;;;5096909;28;20399;-72
2023/09/08 12:22:47;;;;;;;;;;;30.80;99.90;;;;;;5096719;28;20356;-70
2023/09/08 12:25:13;;;;;;;;;;;30.80;99.90;;;;;;5097000;28;19909;-71
2023/09/08 12:27:40;;;;;;;;;;;30.80;99.90;;;;;;5096575;28;19993;-71
2023/09/08 12:30:08;;;;;;;;;;;30.80;99.90;;;;;;5096627;28;20379;-71
2023/09/08 12:32:33;;;;;;;;;;;30.90;99.90;;;;;;5096837;28;19915;-71
2023/09/08 12:35:03;;;;;;;;;;;30.90;99.90;;;;;;5096752;28;19916;-71
2023/09/08 12:37:29;;;;;;;;;;;30.80;99.90;;;;;;5096520;28;19923;-72
2023/09/08 12:39:55;;;;;;;;;;;30.60;99.90;;;;;;5096402;28;19915;-71
2023/09/08 12:42:25;;;;;;;;;;;30.70;99.90;;;;;;5096274;28;19915;-71
2023/09/08 12:44:52;;;;;;;;;;;30.80;99.90;;;;;;5096415;28;19908;-72
2023/09/08 12:47:18;;;;;;;;;;;31.00;99.90;;;;;;5095898;28;19981;-71
2023/09/08 12:49:44;;;;;;;;;;;30.90;99.90;;;;;;5096153;28;19912;-71
2023/09/08 12:52:10;;;;;;;;;;;31.00;99.90;;;;;;5096043;28;19962;-71
2023/09/08 12:54:36;;;;;;;;;;;31.30;99.90;;;;;;5096019;28;19939;-72
2023/09/08 12:57:02;;;;;;;;;;;31.30;99.90;;;;;;5096094;28;19954;-71
2023/09/08 12:59:28;;;;;;;;;;;31.40;99.90;;;;;;5096341;28;19943;-72
2023/09/08 13:01:55;;;;;;;;;;;31.50;99.90;;;;;;5077654;28;19908;-71
2023/09/08 13:04:22;;;;;;;;;;;31.30;99.90;;;;;;5096319;28;19999;-71
2023/09/08 13:06:49;;;;;;;;;;;31.20;99.90;;;;;;5095905;28;19953;-72
2023/09/08 13:09:15;;;;;;;;;;;30.90;99.90;;;;;;5095841;28;19999;-73
2023/09/08 13:11:41;;;;;;;;;;;30.80;99.90;;;;;;5077505;28;19908;-71
2023/09/08 13:14:07;;;;;;;;;;;31.00;99.90;;;;;;5095629;28;19912;-71
2023/09/08 13:16:33;;;;;;;;;;;31.00;99.90;;;;;;5096252;28;20378;-71
2023/09/08 13:18:59;;;;;;;;;;;31.00;99.90;;;;;;5095970;28;19915;-71
2023/09/08 13:21:25;;;;;;;;;;;30.90;99.90;;;;;;5095989;28;19908;-72
2023/09/08 13:23:50;;;;;;;;;;;31.00;99.90;;;;;;5095460;28;19995;-72
2023/09/08 13:26:16;;;;;;;;;;;31.00;99.90;;;;;;5077207;28;19915;-71
2023/09/08 13:28:43;;;;;;;;;;;30.80;99.90;;;;;;5096337;28;20276;-71
2023/09/08 13:31:08;;;;;;;;;;;30.80;99.90;;;;;;5095537;28;19915;-71
2023/09/08 13:33:34;;;;;;;;;;;30.80;99.90;;;;;;5095580;28;19908;-71
2023/09/08 13:36:00;;;;;;;;;;;30.60;99.90;;;;;;5095452;28;19912;-72
2023/09/08 13:38:26;;;;;;;;;;;30.20;99.90;;;;;;5095166;28;19920;-71
2023/09/08 13:40:52;;;;;;;;;;;30.10;99.90;;;;;;5095254;28;19915;-71
2023/09/08 13:43:18;;;;;;;;;;;29.90;99.90;;;;;;5095569;28;19915;-71
2023/09/08 13:45:46;;;;;;;;;;;29.70;99.90;;;;;;5094900;28;19908;-71
2023/09/08 13:48:12;;;;;;;;;;;29.50;99.90;;;;;;5095476;28;19915;-71
2023/09/08 13:50:39;;;;;;;;;;;28.50;99.90;;;;;;5076854;28;19908;-71
2023/09/08 13:53:04;;;;;;;;;;;27.00;99.90;;;;;;5076654;28;19908;-70
2023/09/08 13:55:30;;;;;;;;;;;26.30;99.90;;;;;;5094721;28;20338;-71
2023/09/08 13:57:56;;;;;;;;;;;25.80;99.90;;;;;;5095273;28;19908;-72
2023/09/08 14:00:22;;;;;;;;;;;25.40;99.90;;;;;;5095195;28;20006;-71
2023/09/08 14:02:48;;;;;;;;;;;25.00;99.90;;;;;;5076628;28;20423;-71
2023/09/08 14:05:14;;;;;;;;;;;24.80;99.90;;;;;;5094639;28;20276;-70
2023/09/08 14:07:39;;;;;;;;;;;24.40;99.90;;;;;;5094718;28;19961;-71
2023/09/08 14:10:07;;;;;;;;;;;24.40;99.90;;;;;;5095007;28;19909;-70
2023/09/08 14:12:36;;;;;;;;;;;24.10;99.90;;;;;;5093824;28;19912;-70